createdAt,value
2022-09-15T00:00:10.064Z,25.38
2022-09-15T00:02:36.845Z,25.45
2022-09-15T00:05:06.131Z,22.40
2022-09-15T00:07:32.848Z,28.38
2022-09-15T00:09:59.669Z,27.45
2022-09-15T00:12:27.762Z,27.17
2022-09-15T00:14:54.571Z,28.92
2022-09-15T00:17:21.646Z,25.60
2022-09-15T00:19:49.051Z,25.80
2022-09-15T00:22:17.135Z,25.35
2022-09-15T00:24:43.867Z,31.50
2022-09-15T00:27:11.177Z,28.00
2022-09-15T00:29:37.949Z,25.95
2022-09-15T00:32:04.959Z,24.20
2022-09-15T00:34:32.340Z,23.70
2022-09-15T00:36:59.117Z,24.50
2022-09-15T00:39:27.190Z,23.58
2022-09-15T00:41:54.657Z,24.02
2022-09-15T00:44:48.974Z,22.45
2022-09-15T00:47:19.522Z,22.58
2022-09-15T00:49:49.209Z,26.40
2022-09-15T00:52:20.918Z,23.70
2022-09-15T00:54:53.278Z,27.92
2022-09-15T00:57:25.429Z,27.45
2022-09-15T00:59:53.158Z,25.70
2022-09-15T01:02:24.026Z,26.35
2022-09-15T01:04:57.965Z,28.63
2022-09-15T01:07:30.289Z,24.70
2022-09-15T01:10:02.388Z,23.95
2022-09-15T01:12:29.807Z,26.38
2022-09-15T01:14:56.742Z,22.48
2022-09-15T01:17:34.117Z,23.13
2022-09-15T01:20:37.159Z,20.57
2022-09-15T01:23:19.930Z,21.17
2022-09-15T01:26:17.947Z,21.73
2022-09-15T01:29:06.981Z,25.75
2022-09-15T01:31:40.587Z,28.02
2022-09-15T01:34:14.908Z,21.77
2022-09-15T01:36:47.932Z,24.25
2022-09-15T01:39:20.124Z,22.48
2022-09-15T01:41:50.482Z,21.80
2022-09-15T01:44:22.933Z,25.23
2022-09-15T01:46:56.823Z,24.63
2022-09-15T01:49:27.472Z,24.52
2022-09-15T01:51:54.829Z,24.92
2022-09-15T01:54:27.430Z,22.05
2022-09-15T01:56:54.837Z,20.88
2022-09-15T01:59:21.713Z,25.40
2022-09-15T02:01:51.845Z,24.15
2022-09-15T02:04:26.333Z,26.38
2022-09-15T02:06:58.339Z,23.90
2022-09-15T02:09:30.283Z,23.83
2022-09-15T02:12:02.551Z,26.23
2022-09-15T02:14:40.336Z,21.23
2022-09-15T02:17:13.216Z,23.42
2022-09-15T02:19:46.841Z,21.10
2022-09-15T02:22:17.801Z,19.85
2022-09-15T02:24:49.951Z,24.42
2022-09-15T02:27:22.556Z,19.02
2022-09-15T02:29:52.388Z,24.92
2022-09-15T02:32:23.467Z,24.83
2022-09-15T02:34:55.313Z,27.00
2022-09-15T02:37:23.665Z,23.65
2022-09-15T02:42:25.695Z,22.42
2022-09-15T02:44:53.269Z,20.88
2022-09-15T02:47:20.396Z,19.95
2022-09-15T02:49:47.133Z,19.52
2022-09-15T02:52:16.133Z,23.92
2022-09-15T02:54:42.892Z,22.75
2022-09-15T02:57:09.622Z,19.85
2022-09-15T02:59:37.058Z,23.95
2022-09-15T03:02:03.822Z,22.90
2022-09-15T03:04:30.564Z,19.15
2022-09-15T03:06:58.015Z,20.38
2022-09-15T03:09:26.108Z,19.83
2022-09-15T03:11:52.839Z,18.47
2022-09-15T03:14:20.204Z,21.13
2022-09-15T03:16:46.980Z,19.65
2022-09-15T03:19:13.714Z,15.50
2022-09-15T03:21:41.010Z,20.15
2022-09-15T03:24:07.746Z,16.00
2022-09-15T03:26:35.849Z,17.30
2022-09-15T03:29:03.263Z,18.88
2022-09-15T03:31:30.060Z,14.55
2022-09-15T03:33:56.815Z,16.92
2022-09-15T03:36:24.352Z,13.68
2022-09-15T03:38:51.229Z,17.58
2022-09-15T03:41:18.196Z,16.48
2022-09-15T03:43:46.847Z,15.60
2022-09-15T03:46:13.602Z,13.83
2022-09-15T03:48:40.389Z,16.92
2022-09-15T03:51:08.830Z,16.77
2022-09-15T03:53:36.540Z,18.77
2022-09-15T03:56:17.324Z,16.42
2022-09-15T03:58:46.036Z,14.77
2022-09-15T04:01:12.893Z,17.37
2022-09-15T04:03:45.168Z,14.85
2022-09-15T04:06:13.997Z,12.32
2022-09-15T04:08:40.857Z,13.07
2022-09-15T04:11:08.610Z,13.63
2022-09-15T04:13:40.055Z,13.15
2022-09-15T04:16:10.273Z,11.57
2022-09-15T04:18:37.835Z,15.75
2022-09-15T04:21:07.065Z,12.60
2022-09-15T04:23:34.383Z,14.73
2022-09-15T04:26:03.619Z,15.07
2022-09-15T04:28:33.407Z,11.55
2022-09-15T04:31:04.937Z,12.43
2022-09-15T04:33:34.119Z,11.93
2022-09-15T04:36:01.559Z,11.93
2022-09-15T04:38:28.666Z,12.65
2022-09-15T04:40:56.011Z,11.45
2022-09-15T04:43:22.907Z,11.95
2022-09-15T04:45:50.491Z,14.73
2022-09-15T04:48:17.932Z,10.48
2022-09-15T04:50:46.015Z,10.73
2022-09-15T04:53:12.752Z,14.90
2022-09-15T04:55:40.107Z,11.18
2022-09-15T04:58:06.893Z,12.27
2022-09-15T05:00:38.556Z,12.48
2022-09-15T05:03:05.945Z,17.45
2022-09-15T05:05:33.702Z,11.38
2022-09-15T05:08:02.223Z,11.55
2022-09-15T05:10:29.607Z,9.55
2022-09-15T05:12:56.318Z,9.00
2022-09-15T05:15:23.049Z,10.13
2022-09-15T05:17:50.458Z,9.35
2022-09-15T05:20:17.798Z,7.72
2022-09-15T05:22:44.919Z,10.70
2022-09-15T05:25:13.706Z,10.40
2022-09-15T05:27:40.443Z,8.32
2022-09-15T05:30:35.797Z,11.40
2022-09-15T05:32:55.676Z,12.15
2022-09-15T05:35:22.443Z,13.15
2022-09-15T05:37:49.194Z,8.52
2022-09-15T05:40:17.965Z,12.23
2022-09-15T05:42:44.707Z,8.02
2022-09-15T05:45:11.492Z,8.15
2022-09-15T05:47:38.847Z,8.55
2022-09-15T05:50:06.222Z,10.27
2022-09-15T05:52:32.964Z,8.88
2022-09-15T05:55:00.304Z,9.95
2022-09-15T05:57:28.680Z,8.88
2022-09-15T05:59:55.402Z,8.63
2022-09-15T06:02:22.754Z,9.95
2022-09-15T06:04:49.564Z,9.18
2022-09-15T06:07:16.692Z,9.65
2022-09-15T06:09:44.045Z,8.98
2022-09-15T06:12:10.748Z,11.35
2022-09-15T06:14:38.929Z,10.15
2022-09-15T06:17:06.287Z,9.60
2022-09-15T06:19:33.319Z,9.27
2022-09-15T06:22:00.082Z,3.63
2022-09-15T06:24:27.742Z,6.38
2022-09-15T06:26:54.434Z,4.78
2022-09-15T06:29:21.536Z,8.20
2022-09-15T06:31:50.356Z,4.45
2022-09-15T06:34:18.366Z,5.53
2022-09-15T06:36:45.101Z,8.27
2022-09-15T06:39:12.535Z,2.40
2022-09-15T06:41:58.804Z,6.03
2022-09-15T06:44:26.663Z,3.28
2022-09-15T06:46:54.847Z,8.68
2022-09-15T06:49:21.573Z,10.93
2022-09-15T06:51:49.184Z,7.57
2022-09-15T06:54:16.016Z,7.15
2022-09-15T06:56:43.083Z,3.53
2022-09-15T06:59:12.010Z,3.45
2022-09-15T07:01:38.918Z,7.95
2022-09-15T07:04:07.890Z,3.05
2022-09-15T07:06:39.105Z,4.93
2022-09-15T07:09:06.668Z,7.30
2022-09-15T07:11:33.717Z,5.53
2022-09-15T07:14:01.067Z,4.57
2022-09-15T07:16:27.939Z,7.78
2022-09-15T07:18:55.556Z,7.20
2022-09-15T07:21:24.322Z,5.85
2022-09-15T07:23:51.117Z,4.35
2022-09-15T07:26:19.941Z,5.40
2022-09-15T07:28:52.149Z,7.72
2022-09-15T07:31:21.700Z,8.02
2022-09-15T07:33:49.340Z,4.65
2022-09-15T07:36:16.620Z,5.25
2022-09-15T07:38:46.680Z,4.68
2022-09-15T07:41:15.913Z,3.55
2022-09-15T07:43:46.417Z,6.88
2022-09-15T07:46:14.341Z,5.25
2022-09-15T07:48:43.400Z,5.03
2022-09-15T07:51:10.130Z,5.45
2022-09-15T07:53:37.471Z,3.00
2022-09-15T07:56:06.397Z,18.13
2022-09-15T08:01:04.701Z,5.18
2022-09-15T08:03:31.615Z,6.05
2022-09-15T08:05:58.912Z,6.90
2022-09-15T08:08:26.770Z,7.90
2022-09-15T08:10:54.109Z,4.28
2022-09-15T08:13:22.212Z,5.88
2022-09-15T08:15:49.689Z,5.35
2022-09-15T08:18:17.156Z,5.43
2022-09-15T08:20:44.188Z,7.82
2022-09-15T08:23:11.551Z,3.90
2022-09-15T08:25:39.128Z,6.43
2022-09-15T08:28:05.848Z,3.75
2022-09-15T08:30:34.681Z,3.63
2022-09-15T08:33:01.412Z,5.13
2022-09-15T08:35:29.867Z,6.28
2022-09-15T08:37:57.208Z,6.20
2022-09-15T08:40:29.050Z,6.93
2022-09-15T08:42:59.815Z,11.13
2022-09-15T08:45:34.333Z,10.07
2022-09-15T08:48:05.817Z,5.75
2022-09-15T08:50:36.795Z,10.65
2022-09-15T08:53:07.144Z,6.03
2022-09-15T08:55:40.071Z,5.57
2022-09-15T08:58:13.088Z,7.22
2022-09-15T09:00:41.866Z,2.20
2022-09-15T09:03:22.370Z,4.80
2022-09-15T09:05:57.970Z,6.45
2022-09-15T09:08:58.685Z,6.90
2022-09-15T09:11:37.451Z,4.20
2022-09-15T09:14:14.859Z,3.05
2022-09-15T09:16:55.934Z,4.50
2022-09-15T09:19:52.321Z,6.88
2022-09-15T09:22:24.492Z,5.63
2022-09-15T09:24:54.983Z,5.82
2022-09-15T09:27:28.587Z,6.85
2022-09-15T09:30:01.493Z,6.35
2022-09-15T09:32:38.516Z,4.95
2022-09-15T09:35:16.275Z,3.50
2022-09-15T09:37:43.999Z,4.82
2022-09-15T09:40:15.185Z,3.35
2022-09-15T09:42:43.338Z,3.00
2022-09-15T09:47:40.127Z,3.60
2022-09-15T09:50:32.746Z,2.47
2022-09-15T09:53:00.459Z,3.95
2022-09-15T09:55:28.219Z,5.88
2022-09-15T09:58:11.617Z,4.13
2022-09-15T10:00:40.335Z,3.88
2022-09-15T10:03:11.581Z,5.25
2022-09-15T10:05:40.703Z,3.47
2022-09-15T10:11:03.623Z,5.28
2022-09-15T10:13:30.416Z,2.08
2022-09-15T10:16:02.085Z,4.45
2022-09-15T10:18:32.782Z,2.50
2022-09-15T10:21:04.430Z,1.50
2022-09-15T10:23:33.002Z,1.65
2022-09-15T10:26:19.320Z,5.38
2022-09-15T10:29:10.175Z,3.58
2022-09-15T10:31:37.631Z,5.18
2022-09-15T10:34:24.897Z,5.88
2022-09-15T10:36:58.826Z,3.13
2022-09-15T10:39:31.400Z,3.47
2022-09-15T10:42:25.609Z,3.45
2022-09-15T10:45:07.415Z,3.53
2022-09-15T10:47:49.467Z,4.82
2022-09-15T10:50:28.900Z,4.72
2022-09-15T10:53:08.404Z,3.90
2022-09-15T10:55:52.619Z,1.85
2022-09-15T10:58:34.915Z,3.45
2022-09-15T11:01:17.156Z,3.65
2022-09-15T11:04:08.456Z,4.45
2022-09-15T11:06:41.611Z,2.50
2022-09-15T11:09:16.202Z,5.15
2022-09-15T11:11:56.177Z,5.90
2022-09-15T11:14:40.731Z,3.95
2022-09-15T11:17:22.694Z,2.90
2022-09-15T11:20:09.611Z,3.10
2022-09-15T11:22:39.563Z,4.10
2022-09-15T11:25:15.772Z,4.70
2022-09-15T11:27:47.477Z,4.20
2022-09-15T11:30:18.216Z,5.70
2022-09-15T11:32:47.926Z,3.72
2022-09-15T11:35:34.641Z,5.45
2022-09-15T11:38:13.051Z,4.50
2022-09-15T11:40:48.379Z,4.60
2022-09-15T11:43:21.540Z,4.85
2022-09-15T11:45:53.111Z,5.30
2022-09-15T11:48:25.004Z,7.20
2022-09-15T11:50:55.539Z,4.60
2022-09-15T11:53:30.285Z,4.88
2022-09-15T11:56:09.905Z,4.80
2022-09-15T11:58:50.287Z,3.20
2022-09-15T12:01:21.530Z,3.08
2022-09-15T12:03:54.300Z,4.57
2022-09-15T12:06:29.090Z,3.63
2022-09-15T12:08:59.281Z,3.17
2022-09-15T12:11:31.192Z,3.65
2022-09-15T12:13:58.492Z,6.55
2022-09-15T12:16:26.917Z,4.95
2022-09-15T12:18:57.758Z,5.85
2022-09-15T12:21:35.254Z,3.03
2022-09-15T12:24:11.877Z,3.20
2022-09-15T12:26:40.972Z,3.55
2022-09-15T12:29:29.898Z,6.60
2022-09-15T12:32:19.158Z,2.45
2022-09-15T12:35:05.554Z,3.08
2022-09-15T12:37:43.634Z,6.15
2022-09-15T12:40:36.035Z,5.18
2022-09-15T12:43:18.654Z,2.55
2022-09-15T12:45:55.114Z,2.42
2022-09-15T12:48:24.263Z,2.53
2022-09-15T12:50:54.504Z,3.20
2022-09-15T12:53:24.408Z,2.85
2022-09-15T12:55:54.034Z,2.28
2022-09-15T12:58:28.123Z,3.10
2022-09-15T13:01:47.310Z,2.58
2022-09-15T13:04:28.228Z,2.45
2022-09-15T13:07:33.648Z,1.50
2022-09-15T13:10:24.626Z,3.22
2022-09-15T13:12:59.743Z,2.65
2022-09-15T13:15:27.610Z,3.47
2022-09-15T13:17:56.943Z,3.42
2022-09-15T13:25:25.557Z,1.98
2022-09-15T13:27:54.988Z,3.60
2022-09-15T13:30:31.363Z,1.98
2022-09-15T13:33:10.419Z,3.20
2022-09-15T13:35:59.859Z,1.80
2022-09-15T13:38:47.851Z,3.58
2022-09-15T13:41:33.864Z,2.83
2022-09-15T13:44:48.397Z,3.17
2022-09-15T13:47:38.071Z,3.95
2022-09-15T13:50:16.586Z,3.28
2022-09-15T13:53:00.745Z,1.30
2022-09-15T13:55:28.524Z,2.13
2022-09-15T14:00:56.247Z,1.98
2022-09-15T14:03:27.231Z,2.97
2022-09-15T14:05:56.282Z,3.15
2022-09-15T14:08:26.824Z,3.08
2022-09-15T14:10:58.045Z,4.20
2022-09-15T14:13:28.201Z,1.73
2022-09-15T14:16:01.682Z,2.00
2022-09-15T14:18:41.357Z,2.50
2022-09-15T14:21:17.290Z,2.83
2022-09-15T14:23:47.407Z,5.82
2022-09-15T14:26:15.900Z,5.63
2022-09-15T14:28:49.955Z,4.90
2022-09-15T14:31:28.642Z,4.95
2022-09-15T14:33:56.343Z,6.32
2022-09-15T14:36:27.332Z,4.57
2022-09-15T14:39:19.539Z,2.83
2022-09-15T14:41:47.523Z,4.60
2022-09-15T14:47:18.767Z,2.50
2022-09-15T14:49:45.564Z,1.88
2022-09-15T14:52:23.211Z,3.60
2022-09-15T14:54:53.676Z,2.70
2022-09-15T14:57:30.080Z,3.08
2022-09-15T15:00:01.292Z,4.40
2022-09-15T15:02:35.309Z,6.22
2022-09-15T15:05:08.304Z,5.85
2022-09-15T15:07:37.637Z,6.25
2022-09-15T15:10:12.128Z,6.38
2022-09-15T15:12:42.110Z,5.10
2022-09-15T15:15:11.463Z,3.53
2022-09-15T15:17:40.944Z,4.05
2022-09-15T15:20:17.401Z,2.88
2022-09-15T15:22:47.085Z,3.85
2022-09-15T15:25:29.774Z,6.38
2022-09-15T15:27:58.173Z,2.50
2022-09-15T15:30:44.088Z,3.90
2022-09-15T15:33:24.836Z,3.58
2022-09-15T15:36:02.645Z,3.22
2022-09-15T15:38:36.534Z,4.82
2022-09-15T15:41:05.880Z,1.77
2022-09-15T15:43:33.689Z,5.38
2022-09-15T15:46:02.444Z,2.95
2022-09-15T15:51:06.335Z,3.42
2022-09-15T15:53:34.624Z,3.10
2022-09-15T15:56:01.673Z,2.47
2022-09-15T15:58:28.999Z,2.75
2022-09-15T16:00:56.727Z,3.25
2022-09-15T16:03:24.667Z,3.33
2022-09-15T16:05:54.653Z,1.60
2022-09-15T16:08:26.554Z,2.28
2022-09-15T16:10:56.279Z,3.55
2022-09-15T16:13:23.783Z,2.03
2022-09-15T16:15:52.179Z,2.63
2022-09-15T16:18:19.573Z,1.73
2022-09-15T16:20:46.322Z,5.20
2022-09-15T16:23:15.132Z,5.15
2022-09-15T16:25:48.038Z,2.85
2022-09-15T16:28:19.488Z,1.77
2022-09-15T16:30:47.019Z,3.78
2022-09-15T16:33:15.340Z,2.30
2022-09-15T16:35:46.433Z,4.13
2022-09-15T16:38:13.808Z,5.47
2022-09-15T16:40:40.559Z,5.00
2022-09-15T16:43:12.699Z,3.10
2022-09-15T16:45:41.622Z,4.18
2022-09-15T16:48:08.792Z,2.25
2022-09-15T16:50:35.620Z,2.80
2022-09-15T16:53:03.846Z,2.28
2022-09-15T16:55:35.558Z,3.42
2022-09-15T16:58:04.162Z,3.30
2022-09-15T17:00:33.317Z,2.70
2022-09-15T17:03:01.867Z,2.95
2022-09-15T17:05:34.423Z,1.52
2022-09-15T17:08:01.739Z,2.67
2022-09-15T17:10:29.123Z,3.00
2022-09-15T17:12:55.955Z,4.75
2022-09-15T17:15:26.156Z,1.98
2022-09-15T17:17:53.919Z,2.85
2022-09-15T17:20:22.898Z,2.55
2022-09-15T17:22:50.300Z,2.92
2022-09-15T17:25:24.642Z,2.37
2022-09-15T17:27:51.836Z,4.63
2022-09-15T17:30:20.833Z,2.85
2022-09-15T17:32:47.831Z,4.55
2022-09-15T17:35:22.586Z,1.85
2022-09-15T17:37:52.300Z,4.25
2022-09-15T17:40:20.822Z,2.88
2022-09-15T17:42:48.417Z,4.28
2022-09-15T17:45:23.911Z,5.50
2022-09-15T17:47:51.325Z,2.53
2022-09-15T17:50:20.487Z,2.10
2022-09-15T17:52:48.054Z,1.92
2022-09-15T17:55:19.904Z,1.52
2022-09-15T17:57:48.136Z,2.65
2022-09-15T18:00:17.186Z,1.80
2022-09-15T18:02:47.892Z,2.95
2022-09-15T18:05:20.771Z,3.35
2022-09-15T18:07:48.098Z,1.48
2022-09-15T18:10:17.699Z,4.03
2022-09-15T18:15:19.024Z,2.45
2022-09-15T18:17:45.980Z,3.35
2022-09-15T18:20:14.216Z,2.88
2022-09-15T18:22:42.148Z,4.05
2022-09-15T18:25:19.900Z,5.50
2022-09-15T18:27:47.476Z,3.60
2022-09-15T18:30:14.263Z,1.05
2022-09-15T18:32:41.006Z,4.75
2022-09-15T18:35:09.065Z,3.53
2022-09-15T18:37:36.299Z,2.33
2022-09-15T18:40:04.607Z,4.40
2022-09-15T18:44:59.983Z,3.20
2022-09-15T18:47:26.717Z,3.17
2022-09-15T18:49:54.045Z,3.92
2022-09-15T18:52:20.844Z,2.85
2022-09-15T18:54:47.582Z,2.30
2022-09-15T18:57:14.939Z,5.10
2022-09-15T18:59:43.189Z,1.73
2022-09-15T19:02:10.255Z,1.88
2022-09-15T19:04:40.651Z,2.28
2022-09-15T19:07:07.591Z,2.65
2022-09-15T19:09:34.421Z,3.10
2022-09-15T19:12:02.850Z,1.38
2022-09-15T19:14:30.518Z,1.70
2022-09-15T19:16:58.745Z,3.05
2022-09-15T19:19:26.167Z,2.45
2022-09-15T19:21:52.896Z,4.65
2022-09-15T19:24:19.621Z,1.83
2022-09-15T19:26:46.984Z,2.35
2022-09-15T19:29:14.167Z,1.95
2022-09-15T19:31:42.128Z,1.42
2022-09-15T19:34:11.035Z,3.25
2022-09-15T19:36:37.786Z,2.03
2022-09-15T19:39:04.944Z,4.50
2022-09-15T19:41:32.388Z,2.25
2022-09-15T19:44:01.154Z,3.20
2022-09-15T19:46:28.076Z,5.78
2022-09-15T19:48:55.665Z,4.15
2022-09-15T19:51:24.837Z,2.15
2022-09-15T19:53:54.429Z,1.92
2022-09-15T19:56:23.665Z,3.00
2022-09-15T19:58:50.439Z,3.03
2022-09-15T20:01:17.183Z,0.95
2022-09-15T20:06:32.698Z,1.20
2022-09-15T20:09:00.645Z,1.42
2022-09-15T20:11:28.669Z,1.13
2022-09-15T20:13:55.479Z,4.47
2022-09-15T20:16:24.266Z,1.00
2022-09-15T20:18:52.689Z,1.33
2022-09-15T20:21:27.102Z,0.77
2022-09-15T20:24:08.168Z,2.90
2022-09-15T20:26:34.907Z,2.63
2022-09-15T20:29:03.299Z,4.03
2022-09-15T20:33:57.494Z,2.63
2022-09-15T20:36:25.713Z,4.13
2022-09-15T20:38:53.736Z,3.90
2022-09-15T20:41:24.501Z,4.90
2022-09-15T20:43:51.805Z,3.25
2022-09-15T20:46:21.912Z,4.63
2022-09-15T20:48:49.969Z,3.15
2022-09-15T20:51:18.807Z,5.33
2022-09-15T20:53:47.933Z,3.67
2022-09-15T20:56:16.375Z,3.75
2022-09-15T20:58:44.437Z,3.60
2022-09-15T21:01:13.886Z,1.42
2022-09-15T21:03:41.989Z,1.85
2022-09-15T21:06:10.324Z,3.13
2022-09-15T21:11:06.222Z,3.38
2022-09-15T21:13:34.111Z,3.08
2022-09-15T21:16:04.873Z,3.03
2022-09-15T21:18:33.371Z,4.32
2022-09-15T21:21:03.262Z,3.00
2022-09-15T21:23:33.599Z,1.05
2022-09-15T21:26:03.524Z,2.97
2022-09-15T21:28:30.870Z,2.53
2022-09-15T21:31:02.747Z,3.33
2022-09-15T21:33:30.396Z,4.15
2022-09-15T21:36:05.599Z,4.50
2022-09-15T21:38:33.321Z,3.35
2022-09-15T21:41:01.570Z,5.77
2022-09-15T21:43:31.612Z,3.80
2022-09-15T21:45:59.077Z,3.50
2022-09-15T21:48:27.144Z,3.53
2022-09-15T21:50:54.462Z,6.43
2022-09-15T21:53:21.979Z,4.43
2022-09-15T21:55:49.335Z,6.53
2022-09-15T21:58:16.416Z,4.70
2022-09-15T22:00:43.792Z,4.55
2022-09-15T22:03:10.639Z,5.38
2022-09-15T22:05:40.619Z,5.20
2022-09-15T22:08:08.492Z,4.13
2022-09-15T22:10:35.275Z,6.25
2022-09-15T22:13:02.818Z,4.60
2022-09-15T22:15:30.196Z,6.00
2022-09-15T22:17:57.048Z,6.32
2022-09-15T22:20:24.196Z,9.05
2022-09-15T22:22:52.865Z,4.05
2022-09-15T22:25:21.917Z,4.33
2022-09-15T22:27:48.980Z,5.68
2022-09-15T22:30:16.413Z,2.45
2022-09-15T22:32:43.165Z,4.57
2022-09-15T22:35:09.966Z,4.10
2022-09-15T22:37:37.294Z,4.20
2022-09-15T22:40:06.570Z,4.57
2022-09-15T22:42:33.320Z,6.63
2022-09-15T22:45:00.716Z,6.97
2022-09-15T22:47:27.633Z,3.30
2022-09-15T22:49:54.360Z,4.45
2022-09-15T22:52:21.713Z,7.47
2022-09-15T22:54:48.443Z,4.05
2022-09-15T22:57:16.527Z,7.60
2022-09-15T22:59:43.909Z,6.90
2022-09-15T23:02:10.721Z,2.78
2022-09-15T23:04:37.503Z,3.80
2022-09-15T23:07:04.885Z,4.00
2022-09-15T23:09:31.682Z,5.88
2022-09-15T23:11:58.513Z,2.58
2022-09-15T23:14:27.603Z,4.93
2022-09-15T23:16:54.369Z,3.38
2022-09-15T23:19:21.091Z,3.15
2022-09-15T23:21:48.585Z,3.70
2022-09-15T23:24:15.477Z,3.72
2022-09-15T23:26:42.224Z,5.80
2022-09-15T23:29:09.778Z,1.92
2022-09-15T23:31:37.919Z,3.42
2022-09-15T23:34:04.650Z,5.57
2022-09-15T23:36:32.034Z,2.60
2022-09-15T23:38:58.778Z,5.70
2022-09-15T23:41:25.562Z,2.92
2022-09-15T23:43:52.890Z,5.07
2022-09-15T23:46:19.690Z,1.63
2022-09-15T23:48:47.855Z,1.42
2022-09-15T23:51:15.206Z,4.18
2022-09-15T23:53:42.020Z,3.42
2022-09-15T23:56:08.739Z,6.57
2022-09-15T23:58:36.195Z,3.00
